Flight Track Log - Related Links

Times and Time Zones

All times are in EDT time to prevent confusion due to time zone crossing. See the N340K flight status page for this flight to view local times or setup timezone preferences in your user account.

Time Position Orientation Groundspeed Altitude Reporting Facility
EDT Latitude Longitude Course Direction KTS MPH feet Rate Location/Type
Mon 04:54:16 PM 48.4100 -122.3964 142° Southeast 143 165 2,600  Level Seattle Center
Mon 04:55:17 PM 48.3778 -122.3583 142° Southeast 139 160 3,600 911 Climbing Seattle Center
Mon 04:55:35 PM 48.3722 -122.3511 139° Southeast 136 157 3,800 684 Climbing Seattle Center
Mon 04:56:36 PM 48.3439 -122.3103 136° Southeast 144 166 4,500 787 Climbing Seattle Center
Mon 04:57:37 PM 48.3183 -122.2689 133° Southeast 136 157 5,400 787 Climbing Seattle Center
Mon 04:58:38 PM 48.2903 -122.2308 138° Southeast 139 160 6,100 836 Climbing Seattle Center
Mon 04:59:39 PM 48.2586 -122.1869 137° Southeast 133 153 7,100 885 Climbing Seattle Center
Mon 05:00:40 PM 48.2311 -122.1481 137° Southeast 136 157 7,900 787 Climbing Seattle Center
Mon 05:01:41 PM 48.2031 -122.1092 137° Southeast 138 159 8,700 738 Climbing Seattle Center
Mon 05:02:42 PM 48.1739 -122.0706 139° Southeast 141 162 9,400 639 Climbing Seattle Center
Mon 05:03:43 PM 48.1442 -122.0300 138° Southeast 146 168 10,000 683 Climbing Seattle Center
Mon 05:04:45 PM 48.1136 -121.9881 137° Southeast 150 173 10,800 732 Climbing Seattle Center
Mon 05:05:46 PM 48.0839 -121.9467 137° Southeast 149 171 11,500 639 Climbing Seattle Center
Mon 05:06:47 PM 48.0519 -121.9031 138° Southeast 156 180 12,100 787 Climbing Seattle Center
Mon 05:07:48 PM 48.0147 -121.8494 136° Southeast 156 180 13,100 443 Climbing Seattle Center
Mon 05:08:49 PM 47.9800 -121.7972 135° Southeast 178 205 13,000 -49 Descending Seattle Center
Mon 05:09:50 PM 47.9433 -121.7442 136° Southeast 183 211 13,000  Level Seattle Center
Mon 05:10:51 PM 47.9211 -121.6728 115° Southeast 192 221 13,000  Level Seattle Center
Mon 05:11:52 PM 47.9031 -121.6003 110° East 190 219 13,000  Level Seattle Center
Mon 05:12:53 PM 47.8825 -121.5283 113° Southeast 189 217 13,000  Level Seattle Center
Mon 05:13:54 PM 47.8508 -121.4697 129° Southeast 186 214 13,000  Level Seattle Center
Mon 05:14:54 PM 47.8067 -121.4147 140° Southeast 181 208 13,000  Level Seattle Center
Mon 05:15:55 PM 47.7689 -121.3658 139° Southeast 181 208 13,000  Level Seattle Center
Mon 05:16:56 PM 47.7336 -121.3150 136° Southeast 177 204 13,000  Level Seattle Center
Mon 05:17:57 PM 47.6956 -121.2642 138° Southeast 182 209 13,000  Level Seattle Center
Mon 05:18:58 PM 47.6564 -121.2108 137° Southeast 187 215 13,000  Level Seattle Center
Mon 05:19:59 PM 47.6189 -121.1597 137° Southeast 185 213 13,000  Level Seattle Center
Mon 05:21:00 PM 47.5819 -121.1072 136° Southeast 187 215 13,000  Level Seattle Center
Mon 05:22:01 PM 47.5433 -121.0539 137° Southeast 191 220 13,000  Level Seattle Center
Mon 05:23:02 PM 47.5058 -121.0053 139° Southeast 182 209 13,000  Level Seattle Center
Mon 05:24:03 PM 47.4686 -120.9558 138° Southeast 182 209 13,000 -49 Level Seattle Center
Mon 05:25:04 PM 47.4311 -120.9050 137° Southeast 184 212 12,900 -49 Descending Seattle Center
Mon 05:26:05 PM 47.3850 -120.8439 138° Southeast 187 215 12,900 -99 Level Seattle Center
Mon 05:27:05 PM 47.3489 -120.7953 138° Southeast 191 220 12,700 -298 Descending Seattle Center
Mon 05:28:06 PM 47.3094 -120.7422 138° Southeast 192 221 12,300 -492 Descending Seattle Center
Mon 05:29:07 PM 47.2656 -120.6847 138° Southeast 210 242 11,700 -885 Descending Seattle Center
Mon 05:30:08 PM 47.2217 -120.6264 138° Southeast 217 250 10,500 -984 Descending Seattle Center
Mon 05:31:09 PM 47.1786 -120.5692 138° Southeast 206 237 9,700 -787 Descending Seattle Center

Login

Don't have an account? Register now (free) for customized features, flight alerts, and more!